sensor_id;sensor_type;location;lat;lon;timestamp;pressure;altitude;pressure_sealevel;temperature;humidity
56182;BME280;51963;46.052;14.544;2023-04-04T00:00:18;98326.56;;;2.25;43.70
56182;BME280;51963;46.052;14.544;2023-04-04T00:02:44;98276.41;;;1.82;44.74
56182;BME280;51963;46.052;14.544;2023-04-04T00:05:10;98328.91;;;2.18;44.39
56182;BME280;51963;46.052;14.544;2023-04-04T00:07:36;98330.94;;;2.15;44.68
56182;BME280;51963;46.052;14.544;2023-04-04T00:10:04;98336.72;;;2.18;44.57
56182;BME280;51963;46.052;14.544;2023-04-04T00:12:30;98313.91;;;2.01;44.48
56182;BME280;51963;46.052;14.544;2023-04-04T00:14:56;98323.09;;;2.05;44.87
56182;BME280;51963;46.052;14.544;2023-04-04T00:17:22;98332.03;;;2.12;44.27
56182;BME280;51963;46.052;14.544;2023-04-04T00:19:47;98327.09;;;2.09;44.26
56182;BME280;51963;46.052;14.544;2023-04-04T00:22:13;98326.38;;;1.97;44.72
56182;BME280;51963;46.052;14.544;2023-04-04T00:24:39;98318.16;;;2.02;44.85
56182;BME280;51963;46.052;14.544;2023-04-04T00:27:05;98324.22;;;2.12;43.96
56182;BME280;51963;46.052;14.544;2023-04-04T00:29:30;98323.09;;;2.05;43.77
56182;BME280;51963;46.052;14.544;2023-04-04T00:31:59;98327.22;;;2.08;44.57
56182;BME280;51963;46.052;14.544;2023-04-04T00:34:25;98308.00;;;1.99;44.75
56182;BME280;51963;46.052;14.544;2023-04-04T00:36:50;98322.00;;;1.98;44.38
56182;BME280;51963;46.052;14.544;2023-04-04T00:39:17;98313.88;;;1.91;44.41
56182;BME280;51963;46.052;14.544;2023-04-04T00:41:43;98315.38;;;1.94;44.45
56182;BME280;51963;46.052;14.544;2023-04-04T00:44:08;98299.97;;;1.81;44.06
56182;BME280;51963;46.052;14.544;2023-04-04T00:46:38;98315.94;;;1.97;44.00
56182;BME280;51963;46.052;14.544;2023-04-04T00:49:06;98305.50;;;1.87;44.75
56182;BME280;51963;46.052;14.544;2023-04-04T00:51:34;98298.88;;;1.73;44.54
56182;BME280;51963;46.052;14.544;2023-04-04T00:54:00;98314.50;;;1.73;44.96
56182;BME280;51963;46.052;14.544;2023-04-04T00:56:27;98312.84;;;1.72;44.93
56182;BME280;51963;46.052;14.544;2023-04-04T00:58:54;98319.72;;;1.73;44.92
56182;BME280;51963;46.052;14.544;2023-04-04T01:01:20;98321.50;;;1.73;44.63
56182;BME280;51963;46.052;14.544;2023-04-04T01:03:46;98292.78;;;1.53;44.96
56182;BME280;51963;46.052;14.544;2023-04-04T01:06:13;98304.34;;;1.70;45.21
56182;BME280;51963;46.052;14.544;2023-04-04T01:08:38;98317.00;;;1.75;45.89
56182;BME280;51963;46.052;14.544;2023-04-04T01:11:05;98304.22;;;1.72;45.11
56182;BME280;51963;46.052;14.544;2023-04-04T01:13:32;98282.94;;;1.67;44.41
56182;BME280;51963;46.052;14.544;2023-04-04T01:15:59;98312.31;;;1.79;44.30
56182;BME280;51963;46.052;14.544;2023-04-04T01:18:26;98292.53;;;1.66;44.69
56182;BME280;51963;46.052;14.544;2023-04-04T01:21:00;98288.94;;;1.57;44.80
56182;BME280;51963;46.052;14.544;2023-04-04T01:23:34;98305.13;;;1.61;45.35
56182;BME280;51963;46.052;14.544;2023-04-04T01:26:03;98300.75;;;1.61;45.16
56182;BME280;51963;46.052;14.544;2023-04-04T01:28:30;98302.94;;;1.56;46.02
56182;BME280;51963;46.052;14.544;2023-04-04T01:31:00;98294.09;;;1.38;45.62
56182;BME280;51963;46.052;14.544;2023-04-04T01:33:30;98285.75;;;1.44;46.09
56182;BME280;51963;46.052;14.544;2023-04-04T01:36:04;98309.38;;;1.52;45.89
56182;BME280;51963;46.052;14.544;2023-04-04T01:41:09;98306.28;;;1.37;46.55
56182;BME280;51963;46.052;14.544;2023-04-04T01:43:45;98310.41;;;1.40;46.68
56182;BME280;51963;46.052;14.544;2023-04-04T01:46:16;98310.50;;;1.28;46.78
56182;BME280;51963;46.052;14.544;2023-04-04T01:48:41;98300.59;;;1.22;46.10
56182;BME280;51963;46.052;14.544;2023-04-04T01:51:07;98289.59;;;1.19;46.50
56182;BME280;51963;46.052;14.544;2023-04-04T01:53:33;98303.63;;;1.27;46.35
56182;BME280;51963;46.052;14.544;2023-04-04T01:55:59;98310.34;;;1.30;46.64
56182;BME280;51963;46.052;14.544;2023-04-04T01:58:26;98293.91;;;1.29;46.56
56182;BME280;51963;46.052;14.544;2023-04-04T02:00:52;98300.59;;;1.22;46.70
56182;BME280;51963;46.052;14.544;2023-04-04T02:03:18;98305.03;;;1.31;45.88
56182;BME280;51963;46.052;14.544;2023-04-04T02:05:44;98288.22;;;1.14;46.28
56182;BME280;51963;46.052;14.544;2023-04-04T02:08:10;98285.22;;;1.19;46.26
56182;BME280;51963;46.052;14.544;2023-04-04T02:10:45;98308.16;;;1.25;45.87
56182;BME280;51963;46.052;14.544;2023-04-04T02:13:13;98306.09;;;1.29;45.98
56182;BME280;51963;46.052;14.544;2023-04-04T02:15:40;98281.06;;;1.07;46.48
56182;BME280;51963;46.052;14.544;2023-04-04T02:18:06;98298.94;;;1.21;46.76
56182;BME280;51963;46.052;14.544;2023-04-04T02:20:32;98291.78;;;1.13;46.22
56182;BME280;51963;46.052;14.544;2023-04-04T02:22:58;98285.88;;;1.11;46.89
56182;BME280;51963;46.052;14.544;2023-04-04T02:25:26;98283.84;;;1.15;46.09
56182;BME280;51963;46.052;14.544;2023-04-04T02:27:52;98292.34;;;1.17;46.34
56182;BME280;51963;46.052;14.544;2023-04-04T02:30:19;98285.56;;;1.05;46.12
56182;BME280;51963;46.052;14.544;2023-04-04T02:32:46;98287.22;;;1.06;46.66
56182;BME280;51963;46.052;14.544;2023-04-04T02:35:16;98285.00;;;1.01;46.84
56182;BME280;51963;46.052;14.544;2023-04-04T02:37:45;98287.47;;;1.02;46.56
56182;BME280;51963;46.052;14.544;2023-04-04T02:40:22;98276.13;;;1.04;46.02
56182;BME280;51963;46.052;14.544;2023-04-04T02:42:47;98278.72;;;1.04;46.46
56182;BME280;51963;46.052;14.544;2023-04-04T02:45:13;98262.47;;;0.90;45.73
56182;BME280;51963;46.052;14.544;2023-04-04T02:47:49;98244.59;;;0.76;46.01
56182;BME280;51963;46.052;14.544;2023-04-04T02:50:16;98267.03;;;0.98;45.79
56182;BME280;51963;46.052;14.544;2023-04-04T02:52:44;98267.88;;;0.98;45.61
56182;BME280;51963;46.052;14.544;2023-04-04T02:55:12;98277.63;;;1.06;45.67
56182;BME280;51963;46.052;14.544;2023-04-04T02:57:40;98273.06;;;0.98;45.61
56182;BME280;51963;46.052;14.544;2023-04-04T03:00:07;98272.81;;;1.01;45.70
56182;BME280;51963;46.052;14.544;2023-04-04T03:02:34;98274.72;;;0.99;45.80
56182;BME280;51963;46.052;14.544;2023-04-04T03:05:00;98268.94;;;0.96;46.16
56182;BME280;51963;46.052;14.544;2023-04-04T03:07:26;98269.59;;;0.88;46.16
56182;BME280;51963;46.052;14.544;2023-04-04T03:09:55;98230.88;;;0.73;45.29
56182;BME280;51963;46.052;14.544;2023-04-04T03:12:21;98262.94;;;1.05;45.21
56182;BME280;51963;46.052;14.544;2023-04-04T03:14:48;98256.31;;;0.91;45.17
56182;BME280;51963;46.052;14.544;2023-04-04T03:17:15;98261.25;;;0.94;44.90
56182;BME280;51963;46.052;14.544;2023-04-04T03:19:44;98269.06;;;0.94;45.80
56182;BME280;51963;46.052;14.544;2023-04-04T03:22:10;98209.69;;;0.57;45.99
56182;BME280;51963;46.052;14.544;2023-04-04T03:24:36;98252.31;;;0.87;45.31
56182;BME280;51963;46.052;14.544;2023-04-04T03:27:02;98232.44;;;0.86;45.66
56182;BME280;51963;46.052;14.544;2023-04-04T03:29:27;98247.38;;;0.84;45.93
56182;BME280;51963;46.052;14.544;2023-04-04T03:31:54;98255.44;;;0.81;45.67
56182;BME280;51963;46.052;14.544;2023-04-04T03:34:20;98225.66;;;0.73;45.56
56182;BME280;51963;46.052;14.544;2023-04-04T03:36:49;98237.03;;;0.72;46.69
56182;BME280;51963;46.052;14.544;2023-04-04T03:39:15;98215.59;;;0.59;46.21
56182;BME280;51963;46.052;14.544;2023-04-04T03:41:43;98250.22;;;0.81;45.94
56182;BME280;51963;46.052;14.544;2023-04-04T03:44:11;98228.78;;;0.67;45.89
56182;BME280;51963;46.052;14.544;2023-04-04T03:46:38;98243.69;;;0.65;45.44
56182;BME280;51963;46.052;14.544;2023-04-04T03:49:03;98260.00;;;0.67;46.37
56182;BME280;51963;46.052;14.544;2023-04-04T03:51:31;98262.16;;;0.62;46.41
56182;BME280;51963;46.052;14.544;2023-04-04T03:53:57;98256.97;;;0.62;46.44
56182;BME280;51963;46.052;14.544;2023-04-04T03:56:23;98253.16;;;0.66;45.69
56182;BME280;51963;46.052;14.544;2023-04-04T03:58:48;98268.81;;;0.76;45.90
56182;BME280;51963;46.052;14.544;2023-04-04T04:01:18;98255.88;;;0.65;45.95
56182;BME280;51963;46.052;14.544;2023-04-04T04:03:45;98251.31;;;0.57;45.47
56182;BME280;51963;46.052;14.544;2023-04-04T04:06:11;98245.72;;;0.62;45.73
56182;BME280;51963;46.052;14.544;2023-04-04T04:08:37;98251.06;;;0.60;45.47
56182;BME280;51963;46.052;14.544;2023-04-04T04:11:04;98264.72;;;0.73;46.14
56182;BME280;51963;46.052;14.544;2023-04-04T04:13:32;98252.06;;;0.69;45.96
56182;BME280;51963;46.052;14.544;2023-04-04T04:15:58;98259.88;;;0.69;46.46
56182;BME280;51963;46.052;14.544;2023-04-04T04:18:23;98258.38;;;0.66;46.45
56182;BME280;51963;46.052;14.544;2023-04-04T04:20:56;98271.56;;;0.75;45.80
56182;BME280;51963;46.052;14.544;2023-04-04T04:23:24;98269.47;;;0.68;46.63
56182;BME280;51963;46.052;14.544;2023-04-04T04:25:50;98281.34;;;0.61;47.00
56182;BME280;51963;46.052;14.544;2023-04-04T04:28:19;98280.75;;;0.57;46.69
56182;BME280;51963;46.052;14.544;2023-04-04T04:30:46;98275.78;;;0.54;47.00
56182;BME280;51963;46.052;14.544;2023-04-04T04:33:14;98258.72;;;0.40;47.06
56182;BME280;51963;46.052;14.544;2023-04-04T04:36:02;98276.00;;;0.41;47.46
56182;BME280;51963;46.052;14.544;2023-04-04T04:38:37;98286.34;;;0.53;46.91
56182;BME280;51963;46.052;14.544;2023-04-04T04:41:03;98260.56;;;0.50;47.10
56182;BME280;51963;46.052;14.544;2023-04-04T04:43:38;98280.88;;;0.56;46.90
56182;BME280;51963;46.052;14.544;2023-04-04T04:46:06;98284.00;;;0.50;46.96
56182;BME280;51963;46.052;14.544;2023-04-04T04:48:38;98289.66;;;0.55;46.87
56182;BME280;51963;46.052;14.544;2023-04-04T04:51:07;98265.44;;;0.43;47.42
56182;BME280;51963;46.052;14.544;2023-04-04T04:53:44;98288.25;;;0.51;47.57
56182;BME280;51963;46.052;14.544;2023-04-04T04:56:10;98268.19;;;0.41;46.11
56182;BME280;51963;46.052;14.544;2023-04-04T04:58:39;98292.88;;;0.68;45.98
56182;BME280;51963;46.052;14.544;2023-04-04T05:01:07;98293.13;;;0.65;46.93
56182;BME280;51963;46.052;14.544;2023-04-04T05:03:38;98299.75;;;0.69;47.06
56182;BME280;51963;46.052;14.544;2023-04-04T05:06:06;98297.13;;;0.69;47.61
56182;BME280;51963;46.052;14.544;2023-04-04T05:08:34;98299.16;;;0.66;46.60
56182;BME280;51963;46.052;14.544;2023-04-04T05:11:16;98286.53;;;0.61;46.92
56182;BME280;51963;46.052;14.544;2023-04-04T05:13:42;98308.50;;;0.68;46.70
56182;BME280;51963;46.052;14.544;2023-04-04T05:16:15;98301.91;;;0.64;47.27
56182;BME280;51963;46.052;14.544;2023-04-04T05:19:05;98304.94;;;0.69;46.01
56182;BME280;51963;46.052;14.544;2023-04-04T05:21:37;98299.84;;;0.68;46.19
56182;BME280;51963;46.052;14.544;2023-04-04T05:24:08;98319.81;;;0.79;46.39
56182;BME280;51963;46.052;14.544;2023-04-04T05:26:37;98316.25;;;0.80;46.94
56182;BME280;51963;46.052;14.544;2023-04-04T05:29:03;98295.75;;;0.65;46.85
56182;BME280;51963;46.052;14.544;2023-04-04T05:31:30;98292.03;;;0.68;46.67
56182;BME280;51963;46.052;14.544;2023-04-04T05:34:02;98295.09;;;0.73;46.60
56182;BME280;51963;46.052;14.544;2023-04-04T05:36:36;98302.19;;;0.71;46.84
56182;BME280;51963;46.052;14.544;2023-04-04T05:39:07;98313.56;;;0.70;46.72
56182;BME280;51963;46.052;14.544;2023-04-04T05:41:38;98316.94;;;0.82;47.46
56182;BME280;51963;46.052;14.544;2023-04-04T05:44:14;98325.56;;;0.82;47.43
56182;BME280;51963;46.052;14.544;2023-04-04T05:46:44;98319.56;;;0.82;46.64
56182;BME280;51963;46.052;14.544;2023-04-04T05:49:10;98359.78;;;0.99;46.48
56182;BME280;51963;46.052;14.544;2023-04-04T05:51:43;98340.06;;;0.96;47.21
56182;BME280;51963;46.052;14.544;2023-04-04T05:54:11;98350.03;;;0.91;47.43
56182;BME280;51963;46.052;14.544;2023-04-04T05:56:38;98345.72;;;1.01;47.21
56182;BME280;51963;46.052;14.544;2023-04-04T05:59:09;98324.50;;;0.85;48.19
56182;BME280;51963;46.052;14.544;2023-04-04T06:01:46;98340.19;;;0.95;47.62
56182;BME280;51963;46.052;14.544;2023-04-04T06:04:13;98350.53;;;1.06;48.06
56182;BME280;51963;46.052;14.544;2023-04-04T06:06:39;98348.50;;;1.10;47.71
56182;BME280;51963;46.052;14.544;2023-04-04T06:09:05;98359.19;;;1.07;46.59
56182;BME280;51963;46.052;14.544;2023-04-04T06:11:33;98358.84;;;1.21;46.92
56182;BME280;51963;46.052;14.544;2023-04-04T06:14:03;98353.50;;;1.23;45.90
56182;BME280;51963;46.052;14.544;2023-04-04T06:16:29;98331.41;;;1.17;46.50
56182;BME280;51963;46.052;14.544;2023-04-04T06:18:55;98354.09;;;1.26;45.51
56182;BME280;51963;46.052;14.544;2023-04-04T06:21:23;98323.47;;;1.19;46.17
56182;BME280;51963;46.052;14.544;2023-04-04T06:23:49;98339.34;;;1.37;45.35
56182;BME280;51963;46.052;14.544;2023-04-04T06:26:15;98338.28;;;1.49;45.59
56182;BME280;51963;46.052;14.544;2023-04-04T06:28:48;98346.53;;;1.54;44.70
56182;BME280;51963;46.052;14.544;2023-04-04T06:31:17;98341.94;;;1.68;45.06
56182;BME280;51963;46.052;14.544;2023-04-04T06:33:44;98330.38;;;1.60;44.49
56182;BME280;51963;46.052;14.544;2023-04-04T06:36:10;98328.22;;;1.66;43.83
56182;BME280;51963;46.052;14.544;2023-04-04T06:38:40;98341.25;;;1.66;43.45
56182;BME280;51963;46.052;14.544;2023-04-04T06:41:14;98318.84;;;1.53;43.60
56182;BME280;51963;46.052;14.544;2023-04-04T06:43:39;98341.56;;;1.82;43.91
56182;BME280;51963;46.052;14.544;2023-04-04T06:46:05;98344.75;;;1.96;43.70
56182;BME280;51963;46.052;14.544;2023-04-04T06:48:32;98349.56;;;1.90;42.20
56182;BME280;51963;46.052;14.544;2023-04-04T06:50:58;98331.84;;;1.84;42.58
56182;BME280;51963;46.052;14.544;2023-04-04T06:53:25;98343.28;;;2.03;42.58
56182;BME280;51963;46.052;14.544;2023-04-04T06:55:51;98339.56;;;2.05;42.14
56182;BME280;51963;46.052;14.544;2023-04-04T06:58:19;98346.72;;;2.13;41.91
56182;BME280;51963;46.052;14.544;2023-04-04T07:00:49;98309.66;;;2.00;42.09
56182;BME280;51963;46.052;14.544;2023-04-04T07:03:16;98349.22;;;2.25;41.31
56182;BME280;51963;46.052;14.544;2023-04-04T07:05:44;98318.03;;;2.13;41.75
56182;BME280;51963;46.052;14.544;2023-04-04T07:08:11;98344.28;;;2.41;41.17
56182;BME280;51963;46.052;14.544;2023-04-04T07:10:37;98339.88;;;2.42;41.22
56182;BME280;51963;46.052;14.544;2023-04-04T07:13:03;98311.31;;;2.30;40.33
56182;BME280;51963;46.052;14.544;2023-04-04T07:15:29;98341.53;;;2.62;41.08
56182;BME280;51963;46.052;14.544;2023-04-04T07:17:55;98332.91;;;2.62;39.83
56182;BME280;51963;46.052;14.544;2023-04-04T07:20:22;98311.75;;;2.45;40.16
56182;BME280;51963;46.052;14.544;2023-04-04T07:22:51;98308.59;;;2.71;39.56
56182;BME280;51963;46.052;14.544;2023-04-04T07:25:17;98294.84;;;2.69;39.96
56182;BME280;51963;46.052;14.544;2023-04-04T07:27:42;98319.69;;;2.93;39.27
56182;BME280;51963;46.052;14.544;2023-04-04T07:30:11;98332.44;;;3.16;39.65
56182;BME280;51963;46.052;14.544;2023-04-04T07:32:37;98328.50;;;3.40;38.73
56182;BME280;51963;46.052;14.544;2023-04-04T07:35:07;98329.81;;;3.63;38.07
56182;BME280;51963;46.052;14.544;2023-04-04T07:37:35;98309.34;;;3.59;37.51
56182;BME280;51963;46.052;14.544;2023-04-04T07:40:01;98330.56;;;4.02;37.21
56182;BME280;51963;46.052;14.544;2023-04-04T07:42:27;98338.22;;;3.85;37.73
56182;BME280;51963;46.052;14.544;2023-04-04T07:44:55;98341.03;;;4.02;36.65
56182;BME280;51963;46.052;14.544;2023-04-04T07:47:21;98311.03;;;4.42;36.18
56182;BME280;51963;46.052;14.544;2023-04-04T07:49:46;98338.72;;;4.45;36.39
56182;BME280;51963;46.052;14.544;2023-04-04T07:52:12;98351.44;;;4.76;35.71
56182;BME280;51963;46.052;14.544;2023-04-04T07:54:38;98337.38;;;4.40;34.52
56182;BME280;51963;46.052;14.544;2023-04-04T07:57:04;98311.72;;;4.89;35.47
56182;BME280;51963;46.052;14.544;2023-04-04T07:59:31;98340.78;;;4.95;35.11
56182;BME280;51963;46.052;14.544;2023-04-04T08:01:57;98332.88;;;5.40;34.58
56182;BME280;51963;46.052;14.544;2023-04-04T08:04:23;98328.56;;;5.57;33.56
56182;BME280;51963;46.052;14.544;2023-04-04T08:06:48;98326.78;;;5.66;34.10
56182;BME280;51963;46.052;14.544;2023-04-04T08:09:14;98322.69;;;5.63;34.72
56182;BME280;51963;46.052;14.544;2023-04-04T08:11:40;98314.88;;;5.80;33.59
56182;BME280;51963;46.052;14.544;2023-04-04T08:14:06;98320.84;;;5.98;33.46
56182;BME280;51963;46.052;14.544;2023-04-04T08:16:32;98335.03;;;5.79;32.81
56182;BME280;51963;46.052;14.544;2023-04-04T08:19:03;98334.22;;;5.79;32.92
56182;BME280;51963;46.052;14.544;2023-04-04T08:21:29;98330.38;;;5.99;32.67
56182;BME280;51963;46.052;14.544;2023-04-04T08:23:55;98316.03;;;5.42;33.10
56182;BME280;51963;46.052;14.544;2023-04-04T08:26:23;98324.41;;;5.81;33.36
56182;BME280;51963;46.052;14.544;2023-04-04T08:28:49;98305.22;;;6.31;32.69
56182;BME280;51963;46.052;14.544;2023-04-04T08:31:15;98294.00;;;6.05;32.13
56182;BME280;51963;46.052;14.544;2023-04-04T08:33:41;98299.59;;;6.18;32.66
56182;BME280;51963;46.052;14.544;2023-04-04T08:36:07;98307.19;;;7.12;31.36
56182;BME280;51963;46.052;14.544;2023-04-04T08:38:33;98294.56;;;6.66;31.31
56182;BME280;51963;46.052;14.544;2023-04-04T08:40:59;98293.88;;;6.97;31.33
56182;BME280;51963;46.052;14.544;2023-04-04T08:43:25;98271.56;;;6.77;30.31
56182;BME280;51963;46.052;14.544;2023-04-04T08:45:52;98293.72;;;7.07;30.36
56182;BME280;51963;46.052;14.544;2023-04-04T08:48:19;98289.13;;;6.84;30.14
56182;BME280;51963;46.052;14.544;2023-04-04T08:50:46;98282.72;;;7.60;29.40
56182;BME280;51963;46.052;14.544;2023-04-04T08:53:13;98276.00;;;7.49;29.00
56182;BME280;51963;46.052;14.544;2023-04-04T08:55:40;98279.78;;;7.55;29.63
56182;BME280;51963;46.052;14.544;2023-04-04T08:58:07;98279.41;;;7.66;29.20
56182;BME280;51963;46.052;14.544;2023-04-04T09:00:33;98285.00;;;7.95;28.63
56182;BME280;51963;46.052;14.544;2023-04-04T09:03:05;98278.25;;;7.12;28.25
56182;BME280;51963;46.052;14.544;2023-04-04T09:05:32;98258.78;;;7.78;28.50
56182;BME280;51963;46.052;14.544;2023-04-04T09:07:59;98269.72;;;7.98;27.98
56182;BME280;51963;46.052;14.544;2023-04-04T09:10:25;98271.69;;;7.96;28.70
56182;BME280;51963;46.052;14.544;2023-04-04T09:12:53;98267.72;;;8.00;28.03
56182;BME280;51963;46.052;14.544;2023-04-04T09:15:20;98286.16;;;8.55;27.86
56182;BME280;51963;46.052;14.544;2023-04-04T09:17:46;98267.75;;;7.92;27.92
56182;BME280;51963;46.052;14.544;2023-04-04T09:23:04;98273.72;;;8.41;27.53
56182;BME280;51963;46.052;14.544;2023-04-04T09:25:31;98271.56;;;8.44;28.00
56182;BME280;51963;46.052;14.544;2023-04-04T09:27:57;98265.50;;;8.35;27.83
56182;BME280;51963;46.052;14.544;2023-04-04T09:30:22;98251.53;;;8.35;27.28
56182;BME280;51963;46.052;14.544;2023-04-04T09:32:49;98255.91;;;8.43;27.51
56182;BME280;51963;46.052;14.544;2023-04-04T09:35:15;98246.28;;;8.58;26.90
56182;BME280;51963;46.052;14.544;2023-04-04T09:37:41;98260.91;;;8.99;27.07
56182;BME280;51963;46.052;14.544;2023-04-04T09:40:11;98257.31;;;8.77;27.32
56182;BME280;51963;46.052;14.544;2023-04-04T09:42:38;98231.97;;;9.36;26.44
56182;BME280;51963;46.052;14.544;2023-04-04T09:45:04;98247.28;;;9.77;26.29
56182;BME280;51963;46.052;14.544;2023-04-04T09:47:30;98249.63;;;9.35;25.44
56182;BME280;51963;46.052;14.544;2023-04-04T09:50:01;98247.91;;;9.43;26.22
56182;BME280;51963;46.052;14.544;2023-04-04T09:52:31;98232.72;;;10.18;25.59
56182;BME280;51963;46.052;14.544;2023-04-04T09:54:59;98235.31;;;9.60;26.08
56182;BME280;51963;46.052;14.544;2023-04-04T09:57:31;98245.13;;;10.39;25.28
56182;BME280;51963;46.052;14.544;2023-04-04T09:59:58;98251.34;;;11.04;25.37
56182;BME280;51963;46.052;14.544;2023-04-04T10:02:29;98229.59;;;10.36;25.57
56182;BME280;51963;46.052;14.544;2023-04-04T10:04:56;98238.66;;;10.05;24.76
56182;BME280;51963;46.052;14.544;2023-04-04T10:07:28;98239.50;;;10.06;25.56
56182;BME280;51963;46.052;14.544;2023-04-04T10:09:55;98229.34;;;11.03;25.05
56182;BME280;51963;46.052;14.544;2023-04-04T10:12:23;98224.19;;;10.95;24.80
56182;BME280;51963;46.052;14.544;2023-04-04T10:14:59;98219.59;;;11.04;24.36
56182;BME280;51963;46.052;14.544;2023-04-04T10:17:39;98212.63;;;11.86;23.91
56182;BME280;51963;46.052;14.544;2023-04-04T10:20:07;98207.00;;;11.54;24.10
56182;BME280;51963;46.052;14.544;2023-04-04T10:22:34;98225.66;;;11.33;24.65
56182;BME280;51963;46.052;14.544;2023-04-04T10:25:01;98216.94;;;10.75;24.63
56182;BME280;51963;46.052;14.544;2023-04-04T10:27:27;98208.59;;;10.06;25.03
56182;BME280;51963;46.052;14.544;2023-04-04T10:29:53;98201.78;;;11.26;23.65
56182;BME280;51963;46.052;14.544;2023-04-04T10:32:33;98211.78;;;11.79;23.53
56182;BME280;51963;46.052;14.544;2023-04-04T10:35:06;98203.06;;;13.00;22.72
56182;BME280;51963;46.052;14.544;2023-04-04T10:37:43;98198.59;;;13.00;23.32
56182;BME280;51963;46.052;14.544;2023-04-04T10:40:15;98190.28;;;12.43;22.64
56182;BME280;51963;46.052;14.544;2023-04-04T10:42:45;98193.16;;;12.28;22.87
56182;BME280;51963;46.052;14.544;2023-04-04T10:45:15;98178.31;;;13.26;20.94
56182;BME280;51963;46.052;14.544;2023-04-04T10:47:42;98187.59;;;11.34;23.00
56182;BME280;51963;46.052;14.544;2023-04-04T10:50:09;98180.47;;;12.77;22.42
56182;BME280;51963;46.052;14.544;2023-04-04T10:52:37;98154.25;;;13.67;21.66
56182;BME280;51963;46.052;14.544;2023-04-04T10:55:06;98186.16;;;13.99;22.14
56182;BME280;51963;46.052;14.544;2023-04-04T10:57:39;98180.56;;;14.39;21.53
56182;BME280;51963;46.052;14.544;2023-04-04T11:00:08;98180.97;;;14.87;20.94
56182;BME280;51963;46.052;14.544;2023-04-04T11:02:57;98170.78;;;15.39;19.81
56182;BME280;51963;46.052;14.544;2023-04-04T11:05:25;98175.69;;;14.61;21.12
56182;BME280;51963;46.052;14.544;2023-04-04T11:08:04;98177.38;;;14.30;20.73
56182;BME280;51963;46.052;14.544;2023-04-04T11:10:34;98171.66;;;15.52;18.85
56182;BME280;51963;46.052;14.544;2023-04-04T11:13:09;98166.34;;;14.77;19.92
56182;BME280;51963;46.052;14.544;2023-04-04T11:15:55;98146.06;;;15.32;20.02
56182;BME280;51963;46.052;14.544;2023-04-04T11:18:44;98141.16;;;13.26;20.56
56182;BME280;51963;46.052;14.544;2023-04-04T11:21:16;98151.06;;;14.22;20.62
56182;BME280;51963;46.052;14.544;2023-04-04T11:29:04;98141.66;;;14.89;20.24
56182;BME280;51963;46.052;14.544;2023-04-04T11:34:06;98115.97;;;17.70;17.72
56182;BME280;51963;46.052;14.544;2023-04-04T11:41:59;98135.38;;;14.58;19.78
56182;BME280;51963;46.052;14.544;2023-04-04T11:44:30;98130.69;;;17.55;18.62
56182;BME280;51963;46.052;14.544;2023-04-04T11:47:01;98122.97;;;16.89;17.44
56182;BME280;51963;46.052;14.544;2023-04-04T11:49:29;98113.94;;;17.60;18.14
56182;BME280;51963;46.052;14.544;2023-04-04T11:51:57;98095.31;;;14.78;18.65
56182;BME280;51963;46.052;14.544;2023-04-04T11:54:23;98120.66;;;16.09;18.26
56182;BME280;51963;46.052;14.544;2023-04-04T11:56:49;98111.88;;;16.33;18.18
56182;BME280;51963;46.052;14.544;2023-04-04T11:59:20;98117.41;;;16.55;18.01
56182;BME280;51963;46.052;14.544;2023-04-04T12:01:46;98108.03;;;15.44;20.30
56182;BME280;51963;46.052;14.544;2023-04-04T12:04:16;98111.34;;;16.00;17.99
56182;BME280;51963;46.052;14.544;2023-04-04T12:06:41;98104.56;;;15.43;19.23
56182;BME280;51963;46.052;14.544;2023-04-04T12:09:09;98091.22;;;16.16;17.74
56182;BME280;51963;46.052;14.544;2023-04-04T12:12:02;98109.78;;;16.59;17.91
56182;BME280;51963;46.052;14.544;2023-04-04T12:14:31;98094.47;;;16.42;17.30
56182;BME280;51963;46.052;14.544;2023-04-04T12:16:57;98091.66;;;16.61;18.40
56182;BME280;51963;46.052;14.544;2023-04-04T12:19:26;98078.91;;;15.73;18.22
56182;BME280;51963;46.052;14.544;2023-04-04T12:21:52;98084.31;;;17.33;18.01
56182;BME280;51963;46.052;14.544;2023-04-04T12:24:19;98083.09;;;15.68;18.37
56182;BME280;51963;46.052;14.544;2023-04-04T12:26:46;98084.84;;;15.75;19.07
56182;BME280;51963;46.052;14.544;2023-04-04T12:29:15;98068.94;;;15.98;18.56
56182;BME280;51963;46.052;14.544;2023-04-04T12:31:43;98080.19;;;17.25;18.22
56182;BME280;51963;46.052;14.544;2023-04-04T12:34:23;98074.03;;;15.27;18.32
56182;BME280;51963;46.052;14.544;2023-04-04T12:36:54;98073.38;;;15.74;17.96
56182;BME280;51963;46.052;14.544;2023-04-04T12:39:21;98070.38;;;14.72;19.30
56182;BME280;51963;46.052;14.544;2023-04-04T12:41:56;98075.50;;;14.74;18.91
56182;BME280;51963;46.052;14.544;2023-04-04T12:47:05;98057.59;;;15.73;18.18
56182;BME280;51963;46.052;14.544;2023-04-04T12:52:04;98068.50;;;15.83;18.00
56182;BME280;51963;46.052;14.544;2023-04-04T12:54:38;98071.81;;;17.21;18.02
56182;BME280;51963;46.052;14.544;2023-04-04T12:57:10;98072.06;;;15.95;18.64
56182;BME280;51963;46.052;14.544;2023-04-04T12:59:44;98081.13;;;14.40;20.06
56182;BME280;51963;46.052;14.544;2023-04-04T13:02:19;98076.59;;;15.03;19.81
56182;BME280;51963;46.052;14.544;2023-04-04T13:04:46;98075.56;;;15.35;18.65
56182;BME280;51963;46.052;14.544;2023-04-04T13:07:29;98059.22;;;16.16;18.01
56182;BME280;51963;46.052;14.544;2023-04-04T13:10:02;98037.09;;;16.80;17.48
56182;BME280;51963;46.052;14.544;2023-04-04T13:12:59;98060.34;;;16.68;18.23
56182;BME280;51963;46.052;14.544;2023-04-04T13:18:17;98054.09;;;18.69;17.42
56182;BME280;51963;46.052;14.544;2023-04-04T13:20:43;98049.75;;;19.07;16.72
56182;BME280;51963;46.052;14.544;2023-04-04T13:23:09;98046.50;;;18.21;16.40
56182;BME280;51963;46.052;14.544;2023-04-04T13:25:41;98044.59;;;17.07;16.69
56182;BME280;51963;46.052;14.544;2023-04-04T13:28:07;98026.19;;;15.75;17.67
56182;BME280;51963;46.052;14.544;2023-04-04T13:30:35;98036.00;;;16.40;17.40